Time;durP1;ratioP1;P1;durP2;ratioP2;P2;SDS_P1;SDS_P2;PMS_P1;PMS_P2;Temp;Humidity;BMP_temperature;BMP_pressure;BME280_temperature;BME280_humidity;BME280_pressure;Samples;Min_cycle;Max_cycle;Signal;HPM_P1;HPM_P2
2020/12/21 00:00:14;;;;;;;18.55;4.80;;;;;;;11.76;62.51;101781.94;5042354;28;20403;-82
2020/12/21 00:02:40;;;;;;;15.50;5.53;;;;;;;11.88;62.00;101790.50;5049887;28;20032;-82
2020/12/21 00:05:06;;;;;;;17.63;6.75;;;;;;;11.84;61.87;101787.31;5070505;28;20032;-79
2020/12/21 00:07:35;;;;;;;15.65;4.95;;;;;;;11.85;61.83;101796.31;5071291;28;20139;-81
2020/12/21 00:10:01;;;;;;;15.35;4.93;;;;;;;11.84;61.52;101784.59;5066397;28;20033;-81
2020/12/21 00:12:27;;;;;;;14.23;4.63;;;;;;;11.74;62.23;101792.13;5079820;28;20406;-82
2020/12/21 00:14:55;;;;;;;19.83;5.78;;;;;;;11.83;61.54;101791.91;5069885;28;20066;-79
2020/12/21 00:17:20;;;;;;;18.20;7.03;;;;;;;11.88;61.36;101788.66;5081957;28;20040;-81
2020/12/21 00:19:45;;;;;;;17.00;4.38;;;;;;;11.72;61.79;101788.75;5069357;28;20064;-82
2020/12/21 00:22:11;;;;;;;12.93;5.90;;;;;;;11.62;62.05;101794.44;5076033;28;20040;-82
2020/12/21 00:24:36;;;;;;;11.80;3.88;;;;;;;11.78;61.66;101790.75;5069699;28;20039;-82
2020/12/21 00:27:02;;;;;;;13.45;3.72;;;;;;;11.67;61.73;101797.47;5072701;28;20024;-81
2020/12/21 00:29:27;;;;;;;10.57;4.28;;;;;;;11.78;61.60;101780.69;5072000;28;20038;-82
2020/12/21 00:31:55;;;;;;;9.40;4.10;;;;;;;11.65;61.64;101785.91;5048676;28;20074;-80
2020/12/21 00:34:21;;;;;;;14.63;3.95;;;;;;;11.72;61.58;101789.59;5065392;28;20036;-80
2020/12/21 00:36:49;;;;;;;26.45;4.38;;;;;;;11.62;61.87;101786.28;5068997;28;20036;-81
2020/12/21 00:39:16;;;;;;;9.65;4.43;;;;;;;11.64;61.53;101784.22;5062150;28;20031;-83
2020/12/21 00:41:42;;;;;;;15.20;5.53;;;;;;;11.74;61.17;101787.56;5050085;28;20028;-82
2020/12/21 00:44:07;;;;;;;14.25;4.45;;;;;;;11.74;61.07;101790.28;5081101;28;20036;-81
2020/12/21 00:46:33;;;;;;;14.25;3.85;;;;;;;11.64;61.25;101782.31;5053099;28;20041;-82
2020/12/21 00:49:00;;;;;;;8.68;4.07;;;;;;;11.66;60.87;101787.59;5067998;28;20028;-81
2020/12/21 00:51:26;;;;;;;7.25;3.05;;;;;;;11.68;60.86;101781.97;5073604;28;20077;-81
2020/12/21 00:53:52;;;;;;;15.70;3.95;;;;;;;11.46;61.07;101779.03;5074884;28;20479;-81
2020/12/21 00:56:19;;;;;;;9.25;3.35;;;;;;;11.43;61.05;101780.25;5075235;28;20036;-82
2020/12/21 00:58:47;;;;;;;11.68;5.32;;;;;;;11.54;60.72;101791.75;5073782;28;20111;-82
2020/12/21 01:01:16;;;;;;;17.25;4.53;;;;;;;11.49;61.12;101783.28;5073989;28;20037;-82
2020/12/21 01:03:41;;;;;;;15.05;5.72;;;;;;;11.46;61.31;101785.34;5053509;28;20104;-81
2020/12/21 01:06:07;;;;;;;8.70;4.75;;;;;;;11.54;60.82;101789.03;5056973;28;20047;-82
2020/12/21 01:08:33;;;;;;;19.38;6.15;;;;;;;11.46;61.37;101773.59;5071343;28;20028;-82
2020/12/21 01:10:59;;;;;;;19.05;5.15;;;;;;;11.46;61.11;101782.63;5053293;28;20093;-81
2020/12/21 01:13:24;;;;;;;9.65;5.53;;;;;;;11.48;61.02;101779.72;5049971;28;20033;-82
2020/12/21 01:15:50;;;;;;;12.00;4.38;;;;;;;11.49;60.93;101778.66;5072329;28;20136;-82
2020/12/21 01:18:15;;;;;;;13.10;4.13;;;;;;;11.46;60.91;101776.31;5053634;28;20479;-82
2020/12/21 01:20:41;;;;;;;8.70;4.25;;;;;;;11.41;61.02;101770.56;5057851;28;20032;-82
2020/12/21 01:23:07;;;;;;;15.00;2.90;;;;;;;11.32;61.24;101767.03;5073778;28;20296;-82
2020/12/21 01:25:33;;;;;;;8.65;3.85;;;;;;;11.24;61.51;101772.53;5068626;28;20032;-82
2020/12/21 01:28:05;;;;;;;10.45;4.70;;;;;;;11.24;61.69;101772.53;5076123;28;20678;-82
2020/12/21 01:30:31;;;;;;;7.60;4.15;;;;;;;11.24;61.45;101770.63;5052605;28;20032;-82
2020/12/21 01:32:56;;;;;;;10.70;3.70;;;;;;;11.17;61.48;101760.63;5081927;28;20036;-82
2020/12/21 01:35:24;;;;;;;11.40;4.72;;;;;;;11.19;61.54;101773.06;5069535;28;20020;-81
2020/12/21 01:37:50;;;;;;;13.35;5.63;;;;;;;11.17;61.80;101769.66;5071357;28;20040;-81
2020/12/21 01:40:15;;;;;;;6.40;3.47;;;;;;;11.09;61.87;101770.56;5067251;28;20036;-81
2020/12/21 01:42:41;;;;;;;12.90;5.50;;;;;;;11.07;61.98;101775.31;5055137;28;20040;-83
2020/12/21 01:45:08;;;;;;;9.10;5.50;;;;;;;11.07;61.80;101782.63;5065617;28;20044;-82
2020/12/21 01:47:34;;;;;;;7.95;4.75;;;;;;;11.02;61.96;101771.44;5031117;28;20471;-81
2020/12/21 01:50:01;;;;;;;9.85;4.38;;;;;;;10.99;61.96;101775.34;5050881;28;20029;-82
2020/12/21 01:52:27;;;;;;;9.48;5.35;;;;;;;10.92;61.97;101777.06;5048379;28;20660;-81
2020/12/21 01:54:52;;;;;;;11.85;7.20;;;;;;;10.94;61.86;101769.59;5048971;28;20032;-81
2020/12/21 01:57:18;;;;;;;15.20;6.95;;;;;;;10.90;62.11;101779.13;5013385;28;20021;-81
2020/12/21 01:59:43;;;;;;;7.28;5.07;;;;;;;10.89;61.82;101783.72;5014826;28;20048;-81
2020/12/21 02:02:12;;;;;;;7.97;3.88;;;;;;;10.85;61.81;101786.97;5032493;28;20414;-81
2020/12/21 02:04:38;;;;;;;11.50;5.22;;;;;;;10.90;61.77;101792.72;5007072;28;20073;-82
2020/12/21 02:07:05;;;;;;;12.80;6.25;;;;;;;10.86;61.97;101791.38;5043621;28;20064;-82
2020/12/21 02:09:31;;;;;;;11.25;5.50;;;;;;;10.72;62.27;101795.66;5049406;28;20037;-81
2020/12/21 02:11:56;;;;;;;14.13;4.72;;;;;;;10.78;61.97;101802.28;5031862;28;20035;-81
2020/12/21 02:14:22;;;;;;;12.05;4.97;;;;;;;10.75;62.18;101807.06;4996775;28;20033;-81
2020/12/21 02:16:48;;;;;;;12.57;6.15;;;;;;;10.70;62.14;101795.84;5031401;28;20057;-81
2020/12/21 02:19:13;;;;;;;13.80;6.25;;;;;;;10.68;62.36;101781.56;5047123;28;20035;-82
2020/12/21 02:21:39;;;;;;;8.88;4.22;;;;;;;10.58;62.82;101789.06;5052346;28;20368;-81
2020/12/21 02:24:05;;;;;;;9.15;4.93;;;;;;;10.71;62.31;101785.81;5049541;28;20029;-82
2020/12/21 02:26:30;;;;;;;13.60;5.53;;;;;;;10.65;62.44;101787.34;5015411;28;20498;-82
2020/12/21 02:28:58;;;;;;;16.27;5.85;;;;;;;10.51;62.96;101782.63;5045854;28;20076;-80
2020/12/21 02:33:58;;;;;;;9.40;4.45;;;;;;;10.60;62.63;101784.31;5505113;22;20059;-78
2020/12/21 02:36:24;;;;;;;7.63;4.32;;;;;;;10.51;62.83;101779.91;5082079;28;20216;-77
2020/12/21 02:38:49;;;;;;;10.02;5.13;;;;;;;10.49;62.91;101769.22;5056192;28;20085;-78
2020/12/21 02:41:16;;;;;;;7.47;3.53;;;;;;;10.57;62.79;101773.78;5059006;28;20039;-77
2020/12/21 02:43:41;;;;;;;8.27;3.88;;;;;;;10.55;62.94;101773.09;5081376;28;20025;-78
2020/12/21 02:46:08;;;;;;;9.77;5.25;;;;;;;10.56;62.78;101780.22;5062827;28;20460;-78
2020/12/21 02:48:34;;;;;;;14.25;4.57;;;;;;;10.48;63.03;101774.81;5080311;28;20052;-77
2020/12/21 02:50:59;;;;;;;12.25;5.05;;;;;;;10.47;63.24;101770.41;5079765;28;20038;-78
2020/12/21 02:53:25;;;;;;;17.98;6.55;;;;;;;10.45;63.45;101764.28;5078994;28;20063;-78
2020/12/21 02:55:50;;;;;;;10.10;5.63;;;;;;;10.44;63.30;101763.44;5071327;28;20098;-78
2020/12/21 02:58:16;;;;;;;16.25;6.18;;;;;;;10.48;63.39;101758.50;5064257;28;20027;-78
2020/12/21 03:00:41;;;;;;;10.27;6.07;;;;;;;10.42;63.52;101759.19;5062416;28;20040;-78
2020/12/21 03:03:07;;;;;;;11.52;6.32;;;;;;;10.25;63.25;101745.59;5062235;28;20055;-77
2020/12/21 03:05:33;;;;;;;9.15;6.07;;;;;;;10.35;63.09;101764.47;5043857;28;20074;-77
2020/12/21 03:08:00;;;;;;;13.20;6.68;;;;;;;10.30;62.68;101759.53;5062843;28;20456;-78
2020/12/21 03:10:26;;;;;;;20.27;8.70;;;;;;;10.15;63.25;101758.53;5061663;28;20516;-77
2020/12/21 03:12:52;;;;;;;16.98;7.97;;;;;;;10.11;63.00;101752.56;5057539;28;20039;-78
2020/12/21 03:15:17;;;;;;;11.85;7.25;;;;;;;10.06;63.33;101757.66;5080715;28;20507;-77
2020/12/21 03:17:43;;;;;;;11.15;8.45;;;;;;;10.04;63.31;101762.44;5048182;28;20028;-77
2020/12/21 03:20:08;;;;;;;12.77;8.88;;;;;;;10.01;63.63;101769.06;5083608;28;20040;-78
2020/12/21 03:22:33;;;;;;;14.07;7.47;;;;;;;10.03;63.32;101764.28;5068192;28;20039;-77
2020/12/21 03:25:00;;;;;;;13.68;9.10;;;;;;;9.99;63.54;101775.66;5051712;28;20067;-78
2020/12/21 03:27:25;;;;;;;14.85;9.40;;;;;;;10.02;63.43;101769.88;5078050;28;20036;-77
2020/12/21 03:29:51;;;;;;;18.23;10.20;;;;;;;10.03;63.51;101772.44;5084722;28;20496;-77
2020/12/21 03:32:16;;;;;;;18.88;11.95;;;;;;;10.04;63.39;101773.31;5077754;28;20040;-77
2020/12/21 03:34:42;;;;;;;13.85;10.25;;;;;;;10.01;63.44;101769.06;5078765;28;20052;-77
2020/12/21 03:37:07;;;;;;;18.90;11.38;;;;;;;10.01;63.82;101768.22;5061261;28;20021;-77
2020/12/21 03:39:33;;;;;;;17.90;11.32;;;;;;;9.99;63.43;101776.53;5069419;28;20054;-78
2020/12/21 03:41:59;;;;;;;11.45;10.13;;;;;;;10.01;63.83;101758.19;5083292;28;20063;-77
2020/12/21 03:44:24;;;;;;;13.15;9.23;;;;;;;10.01;63.89;101765.50;5068685;28;20035;-78
2020/12/21 03:46:50;;;;;;;13.82;8.32;;;;;;;10.06;63.93;101773.13;5048782;28;20409;-78
2020/12/21 03:49:15;;;;;;;14.45;8.10;;;;;;;10.08;64.00;101766.50;5071133;28;20482;-77
2020/12/21 03:51:40;;;;;;;16.77;10.45;;;;;;;10.10;64.38;101763.59;5066626;28;20455;-78
2020/12/21 03:54:06;;;;;;;14.73;8.95;;;;;;;10.09;64.45;101754.63;5049445;28;20040;-78
2020/12/21 03:56:31;;;;;;;17.35;10.40;;;;;;;10.17;64.04;101751.88;5068434;28;20029;-77
2020/12/21 03:58:56;;;;;;;16.33;9.45;;;;;;;10.12;64.09;101739.84;5088750;28;20498;-78
2020/12/21 04:01:22;;;;;;;19.55;10.93;;;;;;;10.10;64.70;101740.00;5070118;28;20040;-78
2020/12/21 04:03:47;;;;;;;17.02;11.00;;;;;;;10.17;64.40;101740.16;5083410;28;20547;-78
2020/12/21 04:06:13;;;;;;;12.60;8.25;;;;;;;10.13;64.68;101745.09;5052029;28;20032;-78
2020/12/21 04:08:38;;;;;;;21.83;9.98;;;;;;;10.16;64.67;101749.34;5065778;28;20585;-78
2020/12/21 04:11:05;;;;;;;20.70;11.07;;;;;;;10.14;64.47;101751.38;5067923;28;20115;-78
2020/12/21 04:13:30;;;;;;;21.38;12.68;;;;;;;10.06;64.00;101741.38;5084460;28;20058;-77
2020/12/21 04:15:56;;;;;;;15.98;9.48;;;;;;;10.00;63.33;101729.28;5085770;28;20477;-77
2020/12/21 04:18:23;;;;;;;19.60;11.52;;;;;;;9.90;63.48;101744.94;5084273;28;20073;-78
2020/12/21 04:20:48;;;;;;;18.70;8.68;;;;;;;9.78;64.14;101738.16;5060960;28;20146;-77
2020/12/21 04:23:14;;;;;;;15.77;9.70;;;;;;;9.75;64.46;101727.63;5050480;28;20498;-77
2020/12/21 04:25:39;;;;;;;18.58;12.80;;;;;;;9.72;64.63;101712.50;5085025;28;20443;-78
2020/12/21 04:28:04;;;;;;;19.83;10.05;;;;;;;9.83;64.80;101727.63;5085490;28;20027;-78
2020/12/21 04:30:30;;;;;;;15.20;12.65;;;;;;;9.86;64.61;101721.84;5050487;28;20440;-77
2020/12/21 04:32:55;;;;;;;16.30;11.45;;;;;;;9.83;64.53;101706.72;5084268;28;20048;-78
2020/12/21 04:35:20;;;;;;;25.92;11.40;;;;;;;9.90;64.69;101719.63;5065997;28;20036;-78
2020/12/21 04:37:46;;;;;;;26.58;12.23;;;;;;;9.78;64.79;101708.25;5072232;28;20024;-78
2020/12/21 04:40:11;;;;;;;18.60;11.10;;;;;;;9.89;64.96;101709.78;5065988;28;20477;-78
2020/12/21 04:42:55;;;;;;;19.95;8.77;;;;;;;9.91;65.21;101715.91;5069968;28;20031;-78
2020/12/21 04:45:21;;;;;;;17.85;10.90;;;;;;;9.91;64.83;101716.72;5083327;28;20036;-78
2020/12/21 04:47:47;;;;;;;18.80;10.68;;;;;;;9.88;65.32;101725.22;5084857;28;20393;-78
2020/12/21 04:50:17;;;;;;;17.73;9.25;;;;;;;9.86;65.21;101706.38;5065893;28;20040;-78
2020/12/21 04:52:51;;;;;;;20.00;9.43;;;;;;;9.93;64.93;101712.00;5083346;28;20028;-78
2020/12/21 04:55:21;;;;;;;20.55;9.65;;;;;;;9.91;65.06;101715.91;5082945;28;20462;-78
2020/12/21 04:57:58;;;;;;;20.70;10.05;;;;;;;9.76;65.83;101715.72;5065352;28;20032;-77
2020/12/21 05:00:25;;;;;;;15.35;8.88;;;;;;;9.77;65.92;101722.84;5066765;28;20044;-78
2020/12/21 05:02:51;;;;;;;25.67;9.93;;;;;;;9.79;66.00;101704.50;5081787;28;20477;-78
2020/12/21 05:05:39;;;;;;;20.67;9.13;;;;;;;9.84;65.79;101702.16;5084385;28;20366;-75
2020/12/21 05:08:18;;;;;;;19.63;8.27;;;;;;;9.90;65.76;101690.59;5079853;28;20371;-75
2020/12/21 05:11:05;;;;;;;19.17;9.23;;;;;;;9.95;65.92;101681.94;5081313;28;20090;-76
2020/12/21 05:13:33;;;;;;;15.43;7.85;;;;;;;10.05;65.52;101693.44;5081066;28;20044;-76
2020/12/21 05:16:00;;;;;;;15.45;7.07;;;;;;;9.96;65.80;101692.63;5083424;28;20024;-76
2020/12/21 05:18:34;;;;;;;16.58;8.07;;;;;;;9.94;65.85;101689.22;5081794;28;20032;-76
2020/12/21 05:21:04;;;;;;;16.55;7.25;;;;;;;9.99;65.52;101694.13;5079490;28;20080;-76
2020/12/21 05:23:31;;;;;;;13.70;8.10;;;;;;;9.98;66.02;101689.75;5080108;28;20021;-76
2020/12/21 05:26:02;;;;;;;22.77;8.60;;;;;;;10.04;65.69;101684.47;5087243;28;20329;-77
2020/12/21 05:28:32;;;;;;;19.65;8.48;;;;;;;10.03;65.69;101690.06;5080428;28;20027;-76
2020/12/21 05:31:00;;;;;;;21.00;9.57;;;;;;;10.07;65.59;101691.44;5085559;28;20077;-77
2020/12/21 05:33:26;;;;;;;22.90;9.65;;;;;;;10.06;65.55;101678.00;5082293;28;20466;-76
2020/12/21 05:35:54;;;;;;;17.10;8.88;;;;;;;9.99;65.79;101681.44;5059159;28;20032;-76
2020/12/21 05:38:22;;;;;;;22.15;8.40;;;;;;;9.94;66.17;101691.94;5083326;28;20043;-76
2020/12/21 05:40:47;;;;;;;21.77;8.73;;;;;;;9.86;66.53;101689.25;5083483;28;20023;-76
2020/12/21 05:43:29;;;;;;;14.95;8.13;;;;;;;9.88;66.46;101689.91;5065085;28;20417;-76
2020/12/21 05:46:24;;;;;;;19.48;9.57;;;;;;;9.79;66.64;101689.06;5084107;28;20455;-76
2020/12/21 05:48:57;;;;;;;17.63;9.93;;;;;;;9.96;66.05;101683.63;5057590;28;20044;-76
2020/12/21 05:51:32;;;;;;;22.73;10.98;;;;;;;9.91;66.12;101680.56;5078839;28;20032;-77
2020/12/21 05:54:00;;;;;;;20.70;12.15;;;;;;;9.84;66.17;101683.97;5083580;28;20039;-76
2020/12/21 05:56:28;;;;;;;14.75;7.03;;;;;;;9.88;66.32;101691.78;5081008;28;20059;-76
2020/12/21 05:58:54;;;;;;;17.40;11.40;;;;;;;9.83;66.21;101684.16;5080289;28;20039;-76
2020/12/21 06:01:20;;;;;;;17.33;11.15;;;;;;;9.85;66.19;101682.97;5066597;28;20137;-76
2020/12/21 06:03:48;;;;;;;23.08;11.85;;;;;;;9.78;66.65;101686.53;5085417;28;20291;-76
2020/12/21 06:06:21;;;;;;;16.23;12.38;;;;;;;9.90;66.04;101674.31;5082326;28;20028;-76
2020/12/21 06:08:49;;;;;;;18.88;12.07;;;;;;;9.89;66.10;101680.75;5084160;28;20036;-76
2020/12/21 06:11:27;;;;;;;23.85;11.60;;;;;;;9.95;65.91;101681.94;5063077;28;20024;-76
2020/12/21 06:13:57;;;;;;;20.08;15.15;;;;;;;9.84;66.42;101674.97;5083665;28;20501;-76
2020/12/21 06:16:24;;;;;;;24.85;13.32;;;;;;;9.94;65.96;101682.94;5067134;28;20035;-76
2020/12/21 06:19:12;;;;;;;28.15;14.18;;;;;;;9.88;66.27;101679.03;5080703;28;20457;-76
2020/12/21 06:21:43;;;;;;;17.35;11.88;;;;;;;9.80;66.57;101679.06;5065714;28;20039;-76
2020/12/21 06:24:38;;;;;;;28.13;13.43;;;;;;;9.80;66.13;101671.75;5078714;28;20046;-75
2020/12/21 06:27:14;;;;;;;23.30;11.32;;;;;;;9.71;66.56;101672.75;5075713;28;20097;-76
2020/12/21 06:29:40;;;;;;;27.20;12.98;;;;;;;9.83;66.04;101670.56;5060691;28;20050;-76
2020/12/21 06:32:07;;;;;;;20.42;12.52;;;;;;;9.75;66.38;101671.41;5080221;28;20032;-76
2020/12/21 06:34:35;;;;;;;22.52;13.73;;;;;;;9.89;66.00;101667.16;5076203;28;20045;-76
2020/12/21 06:37:04;;;;;;;20.52;11.65;;;;;;;9.87;66.10;101669.22;5080345;28;20532;-77
2020/12/21 06:39:31;;;;;;;19.85;10.77;;;;;;;9.84;65.86;101658.69;5078608;28;20067;-77
2020/12/21 06:42:04;;;;;;;28.85;11.52;;;;;;;9.86;66.38;101668.34;5082991;28;20122;-76
2020/12/21 06:44:30;;;;;;;22.17;15.23;;;;;;;9.87;66.28;101669.22;5081090;28;20237;-76
2020/12/21 06:46:56;;;;;;;20.58;11.57;;;;;;;9.91;66.22;101672.41;5073156;28;20066;-76
2020/12/21 06:49:22;;;;;;;22.75;13.57;;;;;;;9.89;66.08;101663.59;5066119;28;20082;-76
2020/12/21 06:51:48;;;;;;;23.40;13.50;;;;;;;10.04;65.85;101660.00;5080753;28;20028;-76
2020/12/21 06:54:17;;;;;;;20.73;11.75;;;;;;;10.01;65.89;101660.34;5049151;28;20393;-76
2020/12/21 06:56:44;;;;;;;20.55;9.85;;;;;;;9.91;66.12;101656.13;5086500;28;20055;-75
2020/12/21 06:59:12;;;;;;;15.02;9.60;;;;;;;9.73;66.92;101654.44;5085016;28;20066;-76
2020/12/21 07:01:39;;;;;;;20.80;10.85;;;;;;;9.83;66.45;101665.13;5086969;28;21042;-77
2020/12/21 07:04:09;;;;;;;22.30;10.73;;;;;;;9.86;66.36;101662.06;5083258;28;20058;-76
2020/12/21 07:06:36;;;;;;;21.83;13.02;;;;;;;9.94;66.42;101663.94;5083467;28;20032;-76
2020/12/21 07:09:01;;;;;;;20.60;12.23;;;;;;;9.81;66.44;101659.03;5083352;28;20020;-76
2020/12/21 07:11:27;;;;;;;25.88;14.23;;;;;;;9.90;66.27;101655.28;5083183;28;20039;-76
2020/12/21 07:13:54;;;;;;;19.15;9.98;;;;;;;9.91;66.42;101651.53;5068169;28;20114;-76
2020/12/21 07:16:20;;;;;;;22.33;10.63;;;;;;;9.89;66.67;101652.72;5080869;28;20027;-75
2020/12/21 07:18:47;;;;;;;17.90;11.90;;;;;;;9.84;67.17;101654.09;5083189;28;20501;-76
2020/12/21 07:21:13;;;;;;;26.23;13.52;;;;;;;9.95;66.88;101638.47;5086854;28;20028;-76
2020/12/21 07:23:39;;;;;;;21.17;15.60;;;;;;;10.08;66.38;101641.47;5086697;28;20057;-76
2020/12/21 07:26:08;;;;;;;20.50;13.52;;;;;;;10.03;67.03;101635.72;5087114;28;20032;-75
2020/12/21 07:28:34;;;;;;;34.88;14.88;;;;;;;9.93;67.33;101635.06;5082214;28;20401;-76
2020/12/21 07:31:05;;;;;;;21.88;13.50;;;;;;;9.90;67.44;101632.69;5085324;28;20028;-76
2020/12/21 07:33:31;;;;;;;20.17;14.53;;;;;;;9.96;67.52;101632.84;5082648;28;20052;-75
2020/12/21 07:35:57;;;;;;;24.90;16.80;;;;;;;10.06;67.03;101629.09;5070153;28;20482;-75
2020/12/21 07:38:23;;;;;;;29.30;17.02;;;;;;;10.22;66.85;101645.34;5065883;28;20036;-76
2020/12/21 07:40:50;;;;;;;16.55;12.70;;;;;;;10.19;66.55;101630.25;5094402;28;20107;-76
2020/12/21 07:43:38;;;;;;;24.50;13.70;;;;;;;10.17;66.96;101635.00;5084092;28;20864;-76
2020/12/21 07:46:25;;;;;;;28.88;14.02;;;;;;;10.37;66.45;101635.47;5085804;28;20382;-76
2020/12/21 07:48:51;;;;;;;26.08;16.90;;;;;;;10.36;66.44;101614.75;5083409;28;20039;-76
2020/12/21 07:51:22;;;;;;;28.90;16.90;;;;;;;10.25;66.70;101606.09;5067694;28;20469;-76
2020/12/21 07:53:48;;;;;;;22.23;12.23;;;;;;;10.30;66.73;101612.72;5084704;28;20037;-75
2020/12/21 07:56:15;;;;;;;23.25;12.10;;;;;;;10.41;66.48;101606.06;5069576;28;20085;-76
2020/12/21 07:58:40;;;;;;;24.95;18.48;;;;;;;10.51;66.36;101605.84;5067677;28;20036;-76
2020/12/21 08:01:06;;;;;;;32.33;16.25;;;;;;;10.46;66.59;101602.81;5087032;28;20034;-76
2020/12/21 08:03:31;;;;;;;25.48;14.45;;;;;;;10.42;66.40;101613.19;5081783;28;20225;-76
2020/12/21 08:06:08;;;;;;;25.33;14.65;;;;;;;10.49;66.37;101608.75;5067313;28;20473;-75
2020/12/21 08:08:35;;;;;;;29.85;14.57;;;;;;;10.57;66.37;101616.03;5060539;28;20036;-78
2020/12/21 08:11:01;;;;;;;29.15;12.98;;;;;;;10.34;67.07;101600.47;5081632;28;20036;-78
2020/12/21 08:13:26;;;;;;;24.83;13.00;;;;;;;10.53;66.63;101598.34;5084798;28;20063;-78
2020/12/21 08:16:02;;;;;;;28.83;13.85;;;;;;;10.60;66.51;101610.22;5084667;28;20542;-75
2020/12/21 08:18:28;;;;;;;28.75;15.90;;;;;;;10.37;66.89;101600.13;5085762;28;20416;-77
2020/12/21 08:20:53;;;;;;;23.27;16.63;;;;;;;10.43;67.11;101598.59;5084725;28;20412;-77
2020/12/21 08:23:26;;;;;;;29.25;14.75;;;;;;;10.56;66.96;101584.41;5067953;28;20670;-77
2020/12/21 08:25:52;;;;;;;25.92;12.95;;;;;;;10.71;66.20;101600.81;5084480;28;20422;-76
2020/12/21 08:28:50;;;;;;;26.17;13.95;;;;;;;10.69;66.33;101595.56;5082654;28;20500;-78
2020/12/21 08:31:23;;;;;;;27.52;14.80;;;;;;;10.41;67.50;101588.91;5062365;28;20047;-78
2020/12/21 08:34:00;;;;;;;23.73;12.48;;;;;;;10.59;66.92;101603.09;5082523;28;20135;-78
2020/12/21 08:36:38;;;;;;;28.10;18.63;;;;;;;10.62;66.80;101596.47;5082266;28;20077;-77
2020/12/21 08:39:04;;;;;;;26.88;14.32;;;;;;;10.57;67.26;101600.53;5083180;28;20028;-77
2020/12/21 08:41:47;;;;;;;21.23;12.73;;;;;;;10.63;67.34;101584.53;5082729;28;20034;-78
2020/12/21 08:44:24;;;;;;;23.25;14.93;;;;;;;10.74;66.73;101574.09;5081990;28;20142;-78
2020/12/21 08:46:51;;;;;;;26.13;12.38;;;;;;;10.77;66.72;101574.75;5081839;28;20119;-78
2020/12/21 08:49:18;;;;;;;23.88;12.75;;;;;;;10.79;66.64;101570.00;5082236;28;20449;-76
2020/12/21 08:51:43;;;;;;;21.13;15.27;;;;;;;10.99;65.93;101565.78;5065379;28;20062;-78
2020/12/21 08:54:08;;;;;;;28.88;15.38;;;;;;;10.79;66.53;101559.13;5081298;28;20405;-78
2020/12/21 08:56:34;;;;;;;21.50;12.40;;;;;;;10.88;66.63;101550.72;5064599;28;20082;-78
2020/12/21 08:58:59;;;;;;;26.98;15.65;;;;;;;10.89;66.65;101537.94;5054937;28;20040;-78
2020/12/21 09:01:25;;;;;;;26.00;19.90;;;;;;;10.97;66.53;101556.09;5085139;28;20024;-77
2020/12/21 09:03:50;;;;;;;23.30;15.75;;;;;;;10.93;66.86;101555.59;5064776;28;20486;-78
2020/12/21 09:06:20;;;;;;;26.38;14.30;;;;;;;11.20;66.07;101556.06;5084878;28;20085;-78
2020/12/21 09:08:46;;;;;;;30.40;15.82;;;;;;;11.30;65.79;101551.22;5065645;28;20037;-79
2020/12/21 09:11:12;;;;;;;27.48;16.70;;;;;;;11.43;65.72;101531.53;5085938;28;20421;-77
2020/12/21 09:13:40;;;;;;;31.48;18.75;;;;;;;11.34;65.76;101538.94;5066228;28;20508;-78
2020/12/21 09:16:06;;;;;;;24.13;19.23;;;;;;;11.52;65.13;101532.31;5084076;28;20080;-78
2020/12/21 09:18:31;;;;;;;33.28;19.55;;;;;;;11.48;65.53;101534.56;5083273;28;20020;-78
2020/12/21 09:20:56;;;;;;;40.28;21.40;;;;;;;11.42;65.86;101519.81;5082115;28;20496;-78
2020/12/21 09:23:22;;;;;;;36.67;23.85;;;;;;;11.38;66.08;101521.19;5048768;28;20081;-78
2020/12/21 09:25:47;;;;;;;35.55;22.73;;;;;;;11.23;66.49;101528.47;5081424;28;20103;-78
2020/12/21 09:28:12;;;;;;;44.22;22.33;;;;;;;11.36;66.26;101538.78;5083325;28;20036;-78
2020/12/21 09:30:38;;;;;;;31.88;26.15;;;;;;;11.54;65.50;101532.97;5081870;28;20039;-78
2020/12/21 09:33:04;;;;;;;40.97;23.95;;;;;;;11.52;65.49;101535.03;5082225;28;20611;-78
2020/12/21 09:35:29;;;;;;;34.70;20.23;;;;;;;11.35;66.03;101529.72;5083801;28;20074;-78
2020/12/21 09:37:55;;;;;;;35.75;19.40;;;;;;;11.27;66.41;101529.81;5082675;28;20024;-74
2020/12/21 09:40:20;;;;;;;28.38;19.60;;;;;;;11.31;66.11;101517.53;5082599;28;20521;-76
2020/12/21 09:42:46;;;;;;;30.15;17.15;;;;;;;11.38;65.85;101520.34;5085118;28;20412;-77
2020/12/21 09:45:11;;;;;;;28.13;18.48;;;;;;;11.35;66.27;101505.22;5084230;28;20035;-78
2020/12/21 09:47:37;;;;;;;29.20;15.70;;;;;;;11.35;66.50;101507.09;5082152;28;20533;-78
2020/12/21 09:50:02;;;;;;;29.00;14.88;;;;;;;11.50;65.97;101494.34;5084924;28;20137;-78
2020/12/21 09:52:28;;;;;;;23.75;14.60;;;;;;;11.46;66.20;101491.16;5063828;28;20116;-78
2020/12/21 09:54:53;;;;;;;22.10;15.60;;;;;;;11.51;66.07;101492.47;5083119;28;20039;-78
2020/12/21 09:57:19;;;;;;;22.50;13.68;;;;;;;11.43;66.44;101496.13;5081346;28;20463;-77
2020/12/21 09:59:44;;;;;;;29.70;16.85;;;;;;;11.57;66.15;101500.75;5066492;28;20121;-79
2020/12/21 10:02:09;;;;;;;22.73;14.00;;;;;;;11.64;66.05;101490.78;5064681;28;20055;-78
2020/12/21 10:04:35;;;;;;;23.98;13.57;;;;;;;11.64;66.17;101492.69;5066181;28;20035;-79
2020/12/21 10:07:01;;;;;;;25.42;15.20;;;;;;;11.43;67.05;101490.69;5083330;28;20397;-77
2020/12/21 10:09:27;;;;;;;23.70;14.30;;;;;;;11.48;67.25;101471.91;5084174;28;20040;-78
2020/12/21 10:11:52;;;;;;;28.63;14.65;;;;;;;11.61;66.98;101477.53;5083770;28;20105;-78
2020/12/21 10:14:18;;;;;;;20.67;14.60;;;;;;;11.43;67.37;101447.97;5084551;28;20047;-78
2020/12/21 10:16:43;;;;;;;24.15;14.75;;;;;;;11.49;67.67;101446.34;5086926;28;20043;-78
2020/12/21 10:19:09;;;;;;;24.30;13.38;;;;;;;11.55;67.29;101436.59;5058358;28;20043;-75
2020/12/21 10:21:34;;;;;;;24.48;14.55;;;;;;;11.55;67.92;101442.88;5066141;28;20031;-74
2020/12/21 10:23:59;;;;;;;21.45;13.95;;;;;;;11.60;67.64;101453.22;5062459;28;20032;-79
2020/12/21 10:26:25;;;;;;;23.92;13.20;;;;;;;11.66;67.77;101452.44;5065660;28;20070;-79
2020/12/21 10:28:50;;;;;;;24.58;13.98;;;;;;;11.64;67.54;101438.19;5046706;28;20066;-77
2020/12/21 10:31:16;;;;;;;22.27;13.80;;;;;;;11.77;67.60;101441.09;5085538;28;20481;-78
2020/12/21 10:33:41;;;;;;;20.40;13.75;;;;;;;11.70;67.57;101426.53;5049670;28;20472;-79
2020/12/21 10:36:06;;;;;;;21.23;13.93;;;;;;;11.76;67.54;101422.22;5065324;28;20033;-77
2020/12/21 10:38:32;;;;;;;20.20;12.93;;;;;;;11.85;67.46;101422.94;5068948;28;20039;-77
2020/12/21 10:40:58;;;;;;;19.08;12.75;;;;;;;11.69;67.86;101408.47;5052465;28;20027;-76
2020/12/21 10:43:23;;;;;;;22.35;14.57;;;;;;;11.82;67.62;101403.22;5085875;28;20040;-76
2020/12/21 10:45:48;;;;;;;22.23;13.73;;;;;;;11.90;67.69;101393.25;5085688;28;20016;-77
2020/12/21 10:48:14;;;;;;;16.00;11.70;;;;;;;12.03;66.98;101384.41;5088676;28;20032;-77
2020/12/21 10:50:39;;;;;;;23.75;12.77;;;;;;;11.94;67.18;101375.47;5066431;28;20088;-77
2020/12/21 10:53:05;;;;;;;18.67;12.40;;;;;;;12.05;67.03;101369.53;5087481;28;20027;-76
2020/12/21 10:55:30;;;;;;;16.55;11.57;;;;;;;12.06;67.16;101364.94;5084831;28;20036;-77
2020/12/21 10:57:55;;;;;;;14.18;10.70;;;;;;;11.91;67.77;101359.47;5084398;28;20030;-76
2020/12/21 11:00:24;;;;;;;16.15;12.05;;;;;;;11.91;67.55;101352.16;5087689;28;20394;-77
2020/12/21 11:02:49;;;;;;;22.63;14.73;;;;;;;11.94;67.62;101342.78;5084369;28;20385;-77
2020/12/21 11:05:15;;;;;;;21.75;14.88;;;;;;;11.92;67.78;101342.09;5086982;28;20035;-76
2020/12/21 11:07:40;;;;;;;24.45;12.95;;;;;;;11.90;68.11;101347.75;5065504;28;20097;-76
2020/12/21 11:10:08;;;;;;;18.08;12.27;;;;;;;11.80;68.12;101341.75;5068344;28;20031;-76
2020/12/21 11:12:35;;;;;;;17.20;11.43;;;;;;;11.98;68.12;101333.19;5080727;28;20038;-77
2020/12/21 11:15:00;;;;;;;26.27;13.65;;;;;;;12.02;67.73;101331.78;5072919;28;20217;-76
2020/12/21 11:17:25;;;;;;;16.30;11.90;;;;;;;11.72;68.61;101318.19;5063763;28;20036;-75